Abbott Park, IL

10:45 PM CDT on October 20, 2014 (GMT -0500)
Prairie Ridge Farm | Change Station
CLOSE
Current Station
Personal Weather Station
Location: Green Oaks, IL
Elevation: 698 ft
Nearby Weather Stations

Elev 698 ft 42.32 °N, 87.92 °W | Updated 4 seconds ago

Overcast
Overcast
51.8 °F
Feels Like 51.8 °F
N
0.9
Wind Variable Wind from NW
Gusts 2.0 mph

Today
High -- | Low -- °F
--% Chance of Precip.
Yesterday
High -- | Low -- °F
Precip. -- in
7:10 AM 6:01 PM
Waning Crescent, 7% visible
Pressure 30.00 in
Visibility 10.0 miles
Clouds Overcast 5500 ft
Dew Point 45 °F
Humidity 77%
Rainfall 0.00 in
Snow Depth Not available.
UV 0 out of 12
Pollen 2.00 out of 12
Ozone Good
PM2.5 Good
Flu Activity No Activity
METAR KUGN 210255Z AUTO 32005KT 10SM OVC055 11/06 A2999 RMK AO2 SLP158 T01060056 51012

More Conditions Fewer Conditions

Pressure 30.00 in
Visibility 10.0 miles
Clouds Overcast 5500 ft
Dew Point 45 °F
Humidity 77%
Rainfall 0.00 in
Snow Depth Not available.
UV 0 out of 12
Pollen 2.00 out of 12
Ozone Good
PM2.5 Good
Flu Activity No Activity
METAR KUGN 210255Z AUTO 32005KT 10SM OVC055 11/06 A2999 RMK AO2 SLP158 T01060056 51012

More Conditions Fewer Conditions

10-Day Weather Forecast

Almanac

Astronomy

Oct. 20, 2014 Rise Set
Actual Time 7:10 AM CDT 6:01 PM CDT
Civil Twilight 6:41 AM CDT 6:30 PM CDT
Nautical Twilight 6:08 AM CDT 7:02 PM CDT
Astronomical Twilight 5:36 AM CDT 7:35 PM CDT
Moon 3:54 AM CDT (10/20) 4:27 PM CDT (10/20)
Length of Visible Light 11h 48m
Length of Day
10h 51m
Tomorrow will be 2m 43s shorter.
Waning Crescent, 7% of the Moon is Illuminated
Today
Waning Crescent
Oct 23
New
Oct 30
First Quarter
Nov 6
Full
Nov 14
Last Quarter

Today's Extremes

State Highs State Lows

Community

WunderPhotos

Upload Photos

1,763,594 photos uploaded!

Nearby

Air Quality

  Air Quality AQ Index Pollutant
Yesterday Good
PM2.5
Yesterday Good
OZONE
Current Good
PM2.5
Current Good
OZONE
Monday Good
PM2.5
Tuesday Good
PM2.5
Wednesday Good
PM2.5

Snow Depth

Station Depth Elevation
No new snow has been reported.

Earthquake Activity

City Distance Mag. Time & Date
No recent earthquake activity has been reported nearby.
Minimum magnitude displayed is 2.5.

Coastal Water Temperatures

Place Temperature
No Stations Reporting

Nearby Weather Stations